Time;durP1;ratioP1;P1;durP2;ratioP2;P2;SDS_P1;SDS_P2;PMS_P1;PMS_P2;Temp;Humidity;BMP_temperature;BMP_pressure;BME280_temperature;BME280_humidity;BME280_pressure;Samples;Min_cycle;Max_cycle;Signal;HPM_P1;HPM_P2
2022/01/12 00:01:11;;;;;;;1999.90;999.90;;;2.50;99.90;;;;;;5106472;28;20169;-80
2022/01/12 00:03:37;;;;;;;1999.90;999.90;;;2.40;99.90;;;;;;5085531;28;20243;-80
2022/01/12 00:06:04;;;;;;;1999.90;999.90;;;2.40;99.90;;;;;;5100329;28;20182;-80
2022/01/12 00:08:33;;;;;;;1999.90;999.90;;;2.40;99.90;;;;;;5100767;28;20436;-78
2022/01/12 00:11:03;;;;;;;1999.90;999.90;;;2.40;99.90;;;;;;5100220;28;20554;-80
2022/01/12 00:13:29;;;;;;;1999.90;999.90;;;2.40;99.90;;;;;;5081987;28;20180;-80
2022/01/12 00:15:55;;;;;;;1999.90;999.90;;;2.30;99.90;;;;;;5099946;28;20206;-78
2022/01/12 00:18:22;;;;;;;1999.90;999.90;;;2.20;99.90;;;;;;5099680;28;20677;-80
2022/01/12 00:20:49;;;;;;;1999.90;999.90;;;2.30;99.90;;;;;;5099831;28;20538;-78
2022/01/12 00:23:16;;;;;;;1999.90;999.90;;;2.30;99.90;;;;;;5100074;28;20250;-80
2022/01/12 00:33:55;;;;;;;1999.90;999.90;;;1.90;99.90;;;;;;5099404;28;20663;-80
2022/01/12 00:36:21;;;;;;;1999.90;999.90;;;1.70;99.90;;;;;;5099560;28;20198;-78
2022/01/12 00:38:48;;;;;;;1999.90;999.90;;;1.60;99.90;;;;;;5098730;28;20181;-77
2022/01/12 00:41:18;;;;;;;1999.90;999.90;;;1.50;99.90;;;;;;5081305;28;20415;-77
2022/01/12 00:43:47;;;;;;;1999.90;999.90;;;1.50;99.90;;;;;;5099493;28;20181;-80
2022/01/12 00:46:14;;;;;;;1999.90;999.90;;;1.50;99.90;;;;;;5098707;28;20201;-80
2022/01/12 00:48:40;;;;;;;1999.90;999.90;;;1.60;99.90;;;;;;5099591;28;20174;-77
2022/01/12 00:51:06;;;;;;;1999.90;999.90;;;1.50;99.90;;;;;;5099072;28;20170;-80
2022/01/12 00:53:31;;;;;;;1999.90;999.90;;;1.40;99.90;;;;;;5098860;28;20284;-77
2022/01/12 00:55:57;;;;;;;1999.90;999.90;;;1.40;99.90;;;;;;5098373;28;20318;-81
2022/01/12 00:58:23;;;;;;;1999.90;999.90;;;1.40;99.90;;;;;;5100132;28;20189;-78
2022/01/12 01:00:48;;;;;;;1999.90;999.90;;;1.30;99.90;;;;;;5100573;28;20599;-78
2022/01/12 01:03:15;;;;;;;1999.90;999.90;;;1.30;99.90;;;;;;5081846;28;20253;-77
2022/01/12 01:05:41;;;;;;;1999.90;999.90;;;1.40;99.90;;;;;;5099565;28;20239;-81
2022/01/12 01:08:07;;;;;;;1999.90;999.90;;;1.60;99.90;;;;;;5099640;28;20170;-79
2022/01/12 01:10:45;;;;;;;1999.90;999.90;;;1.60;99.90;;;;;;5099790;28;20173;-80
2022/01/12 01:13:15;;;;;;;1999.90;999.90;;;1.60;99.90;;;;;;5099911;28;20549;-80
2022/01/12 01:26:31;;;;;;;1999.90;999.90;;;1.60;99.90;;;;;;5099332;28;20220;-80
2022/01/12 01:28:57;;;;;;;1999.90;999.90;;;1.50;99.90;;;;;;5099143;28;20201;-79
2022/01/12 01:31:29;;;;;;;1999.90;999.90;;;1.50;99.90;;;;;;5099758;28;20177;-80
2022/01/12 01:33:55;;;;;;;1999.90;999.90;;;1.50;99.90;;;;;;5081673;28;20170;-80
2022/01/12 01:36:21;;;;;;;1999.90;999.90;;;1.50;99.90;;;;;;5099658;28;20206;-80
2022/01/12 01:38:46;;;;;;;1999.90;999.90;;;1.50;99.90;;;;;;5081762;28;20627;-80
2022/01/12 01:41:12;;;;;;;1999.90;999.90;;;1.50;99.90;;;;;;5099071;28;20410;-80
2022/01/12 01:43:54;;;;;;;1999.90;999.90;;;1.50;99.90;;;;;;5099659;28;20230;-80
2022/01/12 01:54:33;;;;;;;1999.90;999.90;;;1.60;99.90;;;;;;5099143;28;20351;-80
2022/01/12 01:56:58;;;;;;;1999.90;999.90;;;1.50;99.90;;;;;;5098765;28;20194;-81
2022/01/12 01:59:24;;;;;;;1999.90;999.90;;;1.50;99.90;;;;;;5098797;28;20162;-80
2022/01/12 02:01:49;;;;;;;1999.90;999.90;;;1.50;99.90;;;;;;5098398;28;20197;-80
2022/01/12 02:04:16;;;;;;;1999.90;999.90;;;1.50;99.90;;;;;;5098243;28;20244;-80
2022/01/12 02:06:41;;;;;;;1999.90;999.90;;;1.50;99.90;;;;;;5098273;28;20616;-79
2022/01/12 02:09:07;;;;;;;1999.90;999.90;;;1.50;99.90;;;;;;5097741;28;20166;-80
2022/01/12 02:11:33;;;;;;;1999.90;999.90;;;1.50;99.90;;;;;;5097857;28;20166;-80
2022/01/12 02:13:59;;;;;;;1999.90;999.90;;;1.50;99.90;;;;;;5098577;28;20171;-79
2022/01/12 02:16:33;;;;;;;1999.90;999.90;;;1.60;99.90;;;;;;5097492;28;20281;-79
2022/01/12 02:19:12;;;;;;;1999.90;999.90;;;1.70;99.90;;;;;;5097947;28;20169;-79
2022/01/12 02:40:48;;;;;;;1999.90;999.90;;;2.10;99.90;;;;;;5098043;28;20186;-79
2022/01/12 02:53:38;;;;;;;1999.90;999.90;;;1.90;99.90;;;;;;5097189;28;20219;-79
2022/01/12 02:54:17;;;;;;;1999.90;999.90;;;1.90;99.90;;;;;;5096451;28;20174;-79
2022/01/12 02:56:43;;;;;;;1999.90;999.90;;;1.90;99.90;;;;;;5097014;28;20201;-79
2022/01/12 02:59:09;;;;;;;1999.90;999.90;;;1.90;99.90;;;;;;5097351;28;20174;-80
2022/01/12 03:02:00;;;;;;;1999.90;999.90;;;1.80;99.90;;;;;;5099167;28;20185;-79
2022/01/12 03:04:21;;;;;;;1999.90;999.90;;;1.80;99.90;;;;;;5100501;28;20185;-80
2022/01/12 03:06:46;;;;;;;1999.90;999.90;;;1.70;99.90;;;;;;5100448;28;20174;-80
2022/01/12 03:09:13;;;;;;;1999.90;999.90;;;1.80;99.90;;;;;;5099746;28;20619;-79
2022/01/12 03:11:39;;;;;;;1999.90;999.90;;;1.90;99.90;;;;;;5100125;28;20163;-80
2022/01/12 03:14:05;;;;;;;1999.90;999.90;;;2.00;99.90;;;;;;5081381;28;20639;-80
2022/01/12 03:16:31;;;;;;;1999.90;999.90;;;2.00;99.90;;;;;;5080069;28;20247;-80
2022/01/12 03:19:00;;;;;;;1999.90;999.90;;;2.00;99.90;;;;;;5080455;28;20182;-79
2022/01/12 03:21:30;;;;;;;1999.90;999.90;;;2.10;99.90;;;;;;5098146;28;20162;-79
2022/01/12 03:23:56;;;;;;;1999.90;999.90;;;2.10;99.90;;;;;;5098193;28;20146;-79
2022/01/12 03:26:24;;;;;;;1999.90;999.90;;;2.10;99.90;;;;;;5098377;28;20198;-79
2022/01/12 03:28:53;;;;;;;1999.90;999.90;;;2.00;99.90;;;;;;5098876;28;20162;-80
2022/01/12 03:31:22;;;;;;;1999.90;999.90;;;1.90;99.90;;;;;;5080698;28;20178;-79
2022/01/12 04:09:18;;;;;;;1999.90;999.90;;;1.30;99.90;;;;;;5099417;28;20161;-80
2022/01/12 04:11:45;;;;;;;1999.90;999.90;;;1.30;99.90;;;;;;5097965;28;20170;-80
2022/01/12 04:14:12;;;;;;;1999.90;999.90;;;1.40;99.90;;;;;;5097822;28;20954;-80
2022/01/12 04:16:39;;;;;;;1999.90;999.90;;;1.50;99.90;;;;;;5098649;28;20215;-80
2022/01/12 04:19:05;;;;;;;1999.90;999.90;;;1.50;99.90;;;;;;5099377;28;20167;-80
2022/01/12 04:21:34;;;;;;;1999.90;999.90;;;1.70;99.90;;;;;;5098882;28;20677;-80
2022/01/12 04:23:59;;;;;;;1999.90;999.90;;;1.70;99.90;;;;;;5098165;28;20469;-80
2022/01/12 04:26:27;;;;;;;1999.90;999.90;;;1.80;99.90;;;;;;5098986;28;20690;-80
2022/01/12 04:28:53;;;;;;;1999.90;999.90;;;1.90;99.90;;;;;;5098607;28;20162;-80
2022/01/12 04:31:20;;;;;;;1999.90;999.90;;;1.90;99.90;;;;;;5097825;28;20206;-80
2022/01/12 04:33:46;;;;;;;1999.90;999.90;;;2.00;99.90;;;;;;5098262;28;20513;-80
2022/01/12 04:36:13;;;;;;;1999.90;999.90;;;2.10;99.90;;;;;;5098319;28;20213;-79
2022/01/12 04:38:41;;;;;;;1999.90;999.90;;;2.10;99.90;;;;;;5098412;28;20187;-80
2022/01/12 04:41:08;;;;;;;1999.90;999.90;;;2.20;99.90;;;;;;5098608;28;20573;-80
2022/01/12 04:43:36;;;;;;;1999.90;999.90;;;2.30;99.90;;;;;;5097773;28;20635;-80
2022/01/12 04:51:07;;;;;;;1999.90;999.90;;;2.40;99.90;;;;;;5102054;28;20178;-76
2022/01/12 04:53:33;;;;;;;1999.90;999.90;;;2.50;99.90;;;;;;5084658;28;20245;-77
2022/01/12 04:55:59;;;;;;;1999.90;999.90;;;2.50;99.90;;;;;;5083698;28;20304;-77
2022/01/12 04:58:27;;;;;;;1999.90;999.90;;;2.50;99.90;;;;;;5103009;28;20162;-77
2022/01/12 05:00:56;;;;;;;1999.90;999.90;;;2.50;99.90;;;;;;5084163;28;20201;-77
2022/01/12 05:06:39;;;;;;;1999.90;999.90;;;2.40;99.90;;;;;;5101978;28;20689;-77
2022/01/12 05:14:16;;;;;;;1999.90;999.90;;;2.20;99.90;;;;;;5101584;28;20295;-77
2022/01/12 05:16:41;;;;;;;1999.90;999.90;;;2.20;99.90;;;;;;5101778;28;20221;-77
2022/01/12 05:19:07;;;;;;;1999.90;999.90;;;2.20;99.90;;;;;;5102926;28;20847;-77
2022/01/12 05:21:32;;;;;;;1999.90;999.90;;;2.20;99.90;;;;;;5103429;28;20162;-76
2022/01/12 05:24:01;;;;;;;1999.90;999.90;;;2.20;99.90;;;;;;5103076;28;20642;-75
2022/01/12 05:26:26;;;;;;;1999.90;999.90;;;2.30;99.90;;;;;;5103800;28;20190;-77
2022/01/12 05:28:52;;;;;;;1999.90;999.90;;;2.40;99.90;;;;;;5103454;28;20182;-76
2022/01/12 05:31:18;;;;;;;1999.90;999.90;;;2.40;99.90;;;;;;5085366;28;20189;-77
2022/01/12 05:33:47;;;;;;;1999.90;999.90;;;2.40;99.90;;;;;;5103993;28;20181;-77
2022/01/12 05:36:15;;;;;;;1999.90;999.90;;;2.40;99.90;;;;;;5103260;28;20227;-76
2022/01/12 05:38:41;;;;;;;1999.90;999.90;;;2.40;99.90;;;;;;5103966;28;20246;-76
2022/01/12 05:41:07;;;;;;;1999.90;999.90;;;2.40;99.90;;;;;;5103690;28;20173;-77
2022/01/12 05:43:35;;;;;;;1999.90;999.90;;;2.30;99.90;;;;;;5085532;28;20279;-77
2022/01/12 05:46:10;;;;;;;1999.90;999.90;;;2.30;99.90;;;;;;5085627;28;20221;-76
2022/01/12 05:51:21;;;;;;;1999.90;999.90;;;2.50;99.90;;;;;;5102549;28;20256;-77
2022/01/12 05:53:47;;;;;;;1999.90;999.90;;;2.60;99.90;;;;;;5102004;28;20194;-76
2022/01/12 05:56:13;;;;;;;1999.90;999.90;;;2.60;99.90;;;;;;5101968;28;20448;-75
2022/01/12 05:58:38;;;;;;;1999.90;999.90;;;2.70;99.90;;;;;;5100821;28;20193;-76
2022/01/12 06:01:04;;;;;;;1999.90;999.90;;;2.70;99.90;;;;;;5092028;28;20245;-76
2022/01/12 06:03:31;;;;;;;1999.90;999.90;;;2.70;99.90;;;;;;5092037;28;20170;-76
2022/01/12 06:05:57;;;;;;;1999.90;999.90;;;2.80;99.90;;;;;;5091707;28;20182;-76
2022/01/12 06:08:22;;;;;;;1999.90;999.90;;;2.70;99.90;;;;;;5091980;28;20224;-76
2022/01/12 06:10:48;;;;;;;1999.90;999.90;;;2.70;99.90;;;;;;5091915;28;20223;-76
2022/01/12 06:13:14;;;;;;;1999.90;999.90;;;2.50;99.90;;;;;;5091934;28;20197;-76
2022/01/12 06:15:39;;;;;;;1999.90;999.90;;;2.50;99.90;;;;;;5091516;28;20209;-76
2022/01/12 06:18:05;;;;;;;1999.90;999.90;;;2.50;99.90;;;;;;5091846;28;20246;-76
2022/01/12 06:20:30;;;;;;;1999.90;999.90;;;2.50;99.90;;;;;;5091829;28;20197;-76
2022/01/12 06:22:56;;;;;;;1999.90;999.90;;;2.60;99.90;;;;;;5091764;28;20186;-76
2022/01/12 06:25:22;;;;;;;1999.90;999.90;;;2.60;99.90;;;;;;5091420;28;20177;-76
2022/01/12 06:27:54;;;;;;;1999.90;999.90;;;2.60;99.90;;;;;;5091771;28;20261;-76
2022/01/12 06:32:57;;;;;;;1999.90;999.90;;;2.50;99.90;;;;;;5091800;28;20508;-76
2022/01/12 06:35:24;;;;;;;1999.90;999.90;;;2.40;99.90;;;;;;5091416;28;20281;-76
2022/01/12 06:37:50;;;;;;;1999.90;999.90;;;2.40;99.90;;;;;;5095653;28;20166;-76
2022/01/12 06:40:18;;;;;;;1999.90;999.90;;;2.30;99.90;;;;;;5095488;28;20170;-75
2022/01/12 06:42:44;;;;;;;1999.90;999.90;;;2.30;99.90;;;;;;5095521;28;20671;-75
2022/01/12 06:45:09;;;;;;;1999.90;999.90;;;2.20;99.90;;;;;;5095133;28;20198;-75
2022/01/12 06:47:36;;;;;;;1999.90;999.90;;;2.20;99.90;;;;;;5095445;28;20409;-76
2022/01/12 06:50:03;;;;;;;1999.90;999.90;;;2.30;99.90;;;;;;5077138;28;20581;-76
2022/01/12 06:52:29;;;;;;;1999.90;999.90;;;2.40;99.90;;;;;;5095270;28;20205;-75
2022/01/12 06:54:55;;;;;;;1999.90;999.90;;;2.40;99.90;;;;;;5094858;28;20608;-76
2022/01/12 06:57:21;;;;;;;1999.90;999.90;;;2.40;99.90;;;;;;5095148;28;20604;-76
2022/01/12 06:59:47;;;;;;;1999.90;999.90;;;2.40;99.90;;;;;;5095119;28;20193;-76
2022/01/12 07:02:12;;;;;;;1999.90;999.90;;;2.40;99.90;;;;;;5095194;28;20166;-76
2022/01/12 07:04:38;;;;;;;1999.90;999.90;;;2.40;99.90;;;;;;5094800;28;20794;-75
2022/01/12 07:07:04;;;;;;;1999.90;999.90;;;2.40;99.90;;;;;;5095033;28;20186;-76
2022/01/12 07:09:30;;;;;;;1999.90;999.90;;;2.50;99.90;;;;;;5094968;28;20213;-76
2022/01/12 07:11:55;;;;;;;1999.90;999.90;;;2.50;99.90;;;;;;5094954;28;20854;-76
2022/01/12 07:14:21;;;;;;;1999.90;999.90;;;2.50;99.90;;;;;;5094872;28;20163;-75
2022/01/12 07:16:47;;;;;;;1999.90;999.90;;;2.50;99.90;;;;;;5095139;28;20202;-76
2022/01/12 07:19:12;;;;;;;1999.90;999.90;;;2.50;99.90;;;;;;5098372;28;20163;-77
2022/01/12 07:21:38;;;;;;;1999.90;999.90;;;2.50;99.90;;;;;;5103617;28;20166;-77
2022/01/12 07:24:05;;;;;;;1999.90;999.90;;;2.70;99.90;;;;;;5103642;28;20162;-77
2022/01/12 07:26:30;;;;;;;1999.90;999.90;;;2.60;99.90;;;;;;5085360;28;20203;-77
2022/01/12 07:28:56;;;;;;;1999.90;999.90;;;2.60;99.90;;;;;;5103449;28;20600;-77
2022/01/12 07:31:22;;;;;;;1999.90;999.90;;;2.60;99.90;;;;;;5085636;28;20170;-77
2022/01/12 07:33:50;;;;;;;1999.90;999.90;;;2.60;99.90;;;;;;5103248;28;20208;-77
2022/01/12 07:36:16;;;;;;;1999.90;999.90;;;2.60;99.90;;;;;;5102742;28;20208;-77
2022/01/12 07:38:42;;;;;;;1999.90;999.90;;;2.60;99.90;;;;;;5085284;28;20171;-77
2022/01/12 07:41:08;;;;;;;1999.90;999.90;;;2.70;99.90;;;;;;5085591;28;20693;-77
2022/01/12 07:43:33;;;;;;;1999.90;999.90;;;2.80;99.90;;;;;;5085000;28;20407;-76
2022/01/12 07:45:59;;;;;;;1999.90;999.90;;;2.80;99.90;;;;;;5103102;28;20590;-77
2022/01/12 07:48:25;;;;;;;1999.90;999.90;;;2.80;99.90;;;;;;5100870;28;20213;-77
2022/01/12 07:50:50;;;;;;;1999.90;999.90;;;2.80;99.90;;;;;;5102253;28;20658;-77
2022/01/12 07:53:16;;;;;;;1999.90;999.90;;;2.80;99.90;;;;;;5103068;28;20533;-77
2022/01/12 07:55:42;;;;;;;1999.90;999.90;;;2.80;99.90;;;;;;5102989;28;20198;-75
2022/01/12 07:58:07;;;;;;;1999.90;999.90;;;2.90;99.90;;;;;;5103337;28;20174;-77
2022/01/12 08:00:33;;;;;;;1999.90;999.90;;;2.90;99.90;;;;;;5103867;28;20193;-77
2022/01/12 08:02:59;;;;;;;1999.90;999.90;;;3.00;99.90;;;;;;5102907;28;20201;-77
2022/01/12 08:05:25;;;;;;;1999.90;999.90;;;3.10;99.90;;;;;;5101618;28;20432;-77
2022/01/12 08:07:52;;;;;;;1999.90;999.90;;;3.10;99.90;;;;;;5101513;28;20628;-77
2022/01/12 08:10:18;;;;;;;1999.90;999.90;;;3.20;99.90;;;;;;5103122;28;20162;-75
2022/01/12 08:12:44;;;;;;;1999.90;999.90;;;3.20;99.90;;;;;;5102722;28;20185;-77
2022/01/12 08:15:11;;;;;;;1999.90;999.90;;;3.30;99.90;;;;;;5082142;28;20262;-77
2022/01/12 08:17:37;;;;;;;1999.90;999.90;;;3.30;99.90;;;;;;5082910;28;20224;-76
2022/01/12 08:20:05;;;;;;;1999.90;999.90;;;3.30;99.90;;;;;;5081924;28;20177;-77
2022/01/12 08:22:30;;;;;;;1999.90;999.90;;;3.40;99.90;;;;;;5099214;28;20654;-76
2022/01/12 08:24:56;;;;;;;1999.90;999.90;;;3.50;99.90;;;;;;5098618;28;20244;-77
2022/01/12 08:27:22;;;;;;;1999.90;999.90;;;3.50;99.90;;;;;;5098829;28;20186;-77
2022/01/12 08:29:50;;;;;;;1999.90;999.90;;;3.60;99.90;;;;;;5098613;28;20300;-77
2022/01/12 08:32:16;;;;;;;1999.90;999.90;;;3.70;99.90;;;;;;5080859;28;20185;-77
2022/01/12 08:34:42;;;;;;;1999.90;999.90;;;3.60;99.90;;;;;;5098105;28;20631;-77
2022/01/12 08:37:08;;;;;;;1999.90;999.90;;;3.50;99.90;;;;;;5099066;28;20193;-77
2022/01/12 08:39:33;;;;;;;1999.90;999.90;;;3.30;99.90;;;;;;5099710;28;20635;-76
2022/01/12 08:41:59;;;;;;;1999.90;999.90;;;3.20;99.90;;;;;;5098805;28;20166;-76
2022/01/12 08:44:25;;;;;;;1999.90;999.90;;;3.20;99.90;;;;;;5098354;28;20249;-77
2022/01/12 08:46:50;;;;;;;1999.90;999.90;;;3.30;99.90;;;;;;5098913;28;20209;-77
2022/01/12 08:49:16;;;;;;;1999.90;999.90;;;3.30;99.90;;;;;;5081085;28;20174;-77
2022/01/12 08:51:41;;;;;;;1999.90;999.90;;;3.40;99.90;;;;;;5093767;28;20166;-76
2022/01/12 08:54:07;;;;;;;1999.90;999.90;;;3.50;99.90;;;;;;5092813;28;20232;-76
2022/01/12 08:56:33;;;;;;;1999.90;999.90;;;3.50;99.90;;;;;;5092737;28;20205;-76
2022/01/12 08:58:58;;;;;;;1999.90;999.90;;;3.70;99.90;;;;;;5092623;28;20169;-76
2022/01/12 09:01:24;;;;;;;1999.90;999.90;;;3.80;99.90;;;;;;5092877;28;20158;-76
2022/01/12 09:03:50;;;;;;;1999.90;999.90;;;3.70;99.90;;;;;;5092738;28;20190;-76
2022/01/12 09:06:16;;;;;;;1999.90;999.90;;;3.80;99.90;;;;;;5092624;28;20239;-76
2022/01/12 09:08:44;;;;;;;1999.90;999.90;;;3.80;99.90;;;;;;5092739;28;20201;-76
2022/01/12 09:11:10;;;;;;;1999.90;999.90;;;3.80;99.90;;;;;;5092675;28;20158;-76
2022/01/12 09:13:36;;;;;;;1999.90;999.90;;;3.80;99.90;;;;;;5092650;28;20215;-76
2022/01/12 09:16:06;;;;;;;1999.90;999.90;;;3.90;99.90;;;;;;5092232;28;20674;-76
2022/01/12 09:18:33;;;;;;;1999.90;999.90;;;3.90;99.90;;;;;;5092550;28;20397;-76
2022/01/12 09:20:59;;;;;;;1999.90;999.90;;;3.80;99.90;;;;;;5092484;28;20638;-76
2022/01/12 09:23:25;;;;;;;1999.90;999.90;;;3.70;99.90;;;;;;5092471;28;20162;-76
2022/01/12 09:25:51;;;;;;;1999.90;999.90;;;3.70;99.90;;;;;;5092213;28;20190;-76
2022/01/12 09:28:17;;;;;;;1999.90;999.90;;;3.70;99.90;;;;;;5092367;28;20231;-76
2022/01/12 09:30:43;;;;;;;1999.90;999.90;;;3.70;99.90;;;;;;5092395;28;20159;-76
2022/01/12 09:33:08;;;;;;;1999.90;999.90;;;3.70;99.90;;;;;;5092412;28;20192;-76
2022/01/12 09:35:34;;;;;;;1999.90;999.90;;;3.80;99.90;;;;;;5092011;28;20198;-75
2022/01/12 09:38:00;;;;;;;1999.90;999.90;;;3.90;99.90;;;;;;5092301;28;20216;-75
2022/01/12 09:40:25;;;;;;;1999.90;999.90;;;4.00;99.90;;;;;;5092282;28;20198;-75
2022/01/12 09:42:52;;;;;;;1999.90;999.90;;;4.10;99.90;;;;;;5092275;28;20163;-76
2022/01/12 09:45:19;;;;;;;1999.90;999.90;;;4.20;99.90;;;;;;5091807;28;20167;-76
2022/01/12 09:47:47;;;;;;;1999.90;999.90;;;4.20;99.90;;;;;;5092274;28;20564;-75
2022/01/12 09:50:15;;;;;;;1999.90;999.90;;;4.30;99.90;;;;;;5091953;28;20162;-76
2022/01/12 09:52:41;;;;;;;1999.90;999.90;;;4.30;99.90;;;;;;5092046;28;20407;-76
2022/01/12 09:55:07;;;;;;;1999.90;999.90;;;4.40;99.90;;;;;;5091665;28;20194;-76
2022/01/12 09:57:32;;;;;;;1999.90;999.90;;;4.40;99.90;;;;;;5094992;28;20165;-77
2022/01/12 09:59:58;;;;;;;1999.90;999.90;;;4.40;99.90;;;;;;5094843;28;20897;-77
2022/01/12 10:02:24;;;;;;;1999.90;999.90;;;4.50;99.90;;;;;;5094726;28;20158;-77
2022/01/12 10:05:04;;;;;;;1999.90;999.90;;;4.60;99.90;;;;;;5094901;28;20166;-77
2022/01/12 10:07:30;;;;;;;1999.90;999.90;;;4.60;99.90;;;;;;5095007;28;20296;-77
2022/01/12 10:10:01;;;;;;;1999.90;999.90;;;4.70;99.90;;;;;;5090454;28;20989;-77
2022/01/12 10:12:27;;;;;;;1999.90;999.90;;;4.80;99.90;;;;;;5097021;28;20174;-77
2022/01/12 10:14:55;;;;;;;1999.90;999.90;;;4.80;99.90;;;;;;5096993;28;20504;-77
2022/01/12 10:17:43;;;;;;;1999.90;999.90;;;4.80;99.90;;;;;;5096470;28;20428;-77
2022/01/12 10:20:09;;;;;;;1999.90;999.90;;;4.80;99.90;;;;;;5096956;28;20411;-77
2022/01/12 10:22:36;;;;;;;1999.90;999.90;;;4.90;99.90;;;;;;5096930;28;20400;-77
2022/01/12 10:25:17;;;;;;;1999.90;999.90;;;4.90;99.90;;;;;;5099194;28;20698;-77
2022/01/12 10:27:43;;;;;;;1999.90;999.90;;;5.00;99.90;;;;;;5082440;28;20474;-77
2022/01/12 10:30:22;;;;;;;1999.90;999.90;;;5.10;99.90;;;;;;5081502;28;20407;-77
2022/01/12 10:33:02;;;;;;;1999.90;999.90;;;5.30;99.90;;;;;;5099193;28;20415;-77
2022/01/12 10:35:29;;;;;;;1999.90;999.90;;;5.30;99.90;;;;;;5099249;28;20459;-77
2022/01/12 10:38:08;;;;;;;1999.90;999.90;;;5.40;99.90;;;;;;5099603;28;20913;-77
2022/01/12 10:40:44;;;;;;;1999.90;999.90;;;5.40;99.90;;;;;;5080919;28;20408;-76
2022/01/12 10:43:30;;;;;;;1999.90;999.90;;;5.30;99.90;;;;;;5081031;28;20415;-77
2022/01/12 10:45:57;;;;;;;1999.90;999.90;;;5.10;99.90;;;;;;5098082;28;20459;-77
2022/01/12 10:48:25;;;;;;;1999.90;999.90;;;5.00;99.90;;;;;;5081623;28;20953;-76
2022/01/12 10:50:56;;;;;;;1999.90;999.90;;;4.90;99.90;;;;;;5099274;28;20503;-77
2022/01/12 10:53:31;;;;;;;1999.90;999.90;;;4.80;99.90;;;;;;5098434;28;20174;-77
2022/01/12 10:56:05;;;;;;;1999.90;999.90;;;4.70;99.90;;;;;;5097381;28;20462;-75
2022/01/12 10:58:32;;;;;;;1999.90;999.90;;;4.60;99.90;;;;;;5079414;28;20411;-77
2022/01/12 11:00:58;;;;;;;1999.90;999.90;;;4.60;99.90;;;;;;5098576;28;20403;-78
2022/01/12 11:03:24;;;;;;;1999.90;999.90;;;4.60;99.90;;;;;;5098239;28;20414;-77
2022/01/12 11:05:53;;;;;;;1999.90;999.90;;;4.60;99.90;;;;;;5101242;28;20210;-76
2022/01/12 11:08:19;;;;;;;1999.90;999.90;;;4.60;99.90;;;;;;5099488;28;20418;-77
2022/01/12 11:10:45;;;;;;;1999.90;999.90;;;4.60;99.90;;;;;;5098937;28;20450;-77
2022/01/12 11:13:14;;;;;;;1999.90;999.90;;;4.70;99.90;;;;;;5098480;28;20396;-77
2022/01/12 11:15:40;;;;;;;1999.90;999.90;;;4.60;99.90;;;;;;5096767;28;20448;-77
2022/01/12 11:18:07;;;;;;;1999.90;999.90;;;4.60;99.90;;;;;;5096965;28;20166;-75
2022/01/12 11:20:33;;;;;;;1999.90;999.90;;;4.70;99.90;;;;;;5099307;28;20154;-76
2022/01/12 11:23:04;;;;;;;1999.90;999.90;;;4.70;99.90;;;;;;5096284;28;20409;-77
2022/01/12 11:25:33;;;;;;;1999.90;999.90;;;4.70;99.90;;;;;;5097477;28;20420;-76
2022/01/12 11:28:15;;;;;;;1999.90;999.90;;;4.80;99.90;;;;;;5097575;28;20412;-76
2022/01/12 11:30:45;;;;;;;1999.90;999.90;;;4.80;99.90;;;;;;5095037;28;20412;-76
2022/01/12 11:33:12;;;;;;;1999.90;999.90;;;4.90;99.90;;;;;;5095087;28;20427;-76
2022/01/12 11:35:51;;;;;;;1999.90;999.90;;;4.90;99.90;;;;;;5095348;28;20444;-76
2022/01/12 11:38:25;;;;;;;1999.90;999.90;;;4.90;99.90;;;;;;5094809;28;20411;-78
2022/01/12 11:40:55;;;;;;;1999.90;999.90;;;4.80;99.90;;;;;;5097099;28;20412;-79
2022/01/12 11:43:29;;;;;;;1999.90;999.90;;;4.60;99.90;;;;;;5097221;28;20404;-77
2022/01/12 11:46:17;;;;;;;1999.90;999.90;;;4.50;99.90;;;;;;5076814;28;20231;-76
2022/01/12 11:48:57;;;;;;;1999.90;999.90;;;4.40;99.90;;;;;;5093959;28;20198;-76
2022/01/12 11:51:35;;;;;;;1999.90;999.90;;;4.30;99.90;;;;;;5095233;28;20166;-75
2022/01/12 11:54:09;;;;;;;1999.90;999.90;;;4.20;99.90;;;;;;5093693;28;20402;-76
2022/01/12 11:56:36;;;;;;;1999.90;999.90;;;4.20;99.90;;;;;;5094412;28;20205;-75
2022/01/12 11:59:09;;;;;;;1999.90;999.90;;;4.10;99.90;;;;;;5093694;28;20162;-76
2022/01/12 12:01:44;;;;;;;1999.90;999.90;;;4.00;99.90;;;;;;5093511;28;20158;-76
2022/01/12 12:04:20;;;;;;;1999.90;999.90;;;3.90;99.90;;;;;;5092990;28;20166;-75
2022/01/12 12:06:46;;;;;;;1999.90;999.90;;;3.80;99.90;;;;;;5092358;28;20190;-75
2022/01/12 12:09:18;;;;;;;1999.90;999.90;;;3.80;99.90;;;;;;5092551;28;20182;-77
2022/01/12 12:11:51;;;;;;;1999.90;999.90;;;3.70;99.90;;;;;;5094010;28;20167;-77
2022/01/12 12:14:18;;;;;;;1999.90;999.90;;;3.60;99.90;;;;;;5092448;28;20174;-76
2022/01/12 12:16:44;;;;;;;1999.90;999.90;;;3.60;99.90;;;;;;5092373;28;20205;-77
2022/01/12 12:19:10;;;;;;;1999.90;999.90;;;3.60;99.90;;;;;;5093237;28;20178;-77
2022/01/12 12:21:37;;;;;;;1999.90;999.90;;;3.60;99.90;;;;;;5092997;28;20544;-77
2022/01/12 12:24:13;;;;;;;1999.90;999.90;;;3.80;99.90;;;;;;5091777;28;20401;-77
2022/01/12 12:26:54;;;;;;;1999.90;999.90;;;3.80;99.90;;;;;;5074345;28;20198;-77
2022/01/12 12:29:26;;;;;;;1999.90;999.90;;;3.90;99.90;;;;;;5092735;28;20163;-77
2022/01/12 12:31:53;;;;;;;1999.90;999.90;;;3.80;99.90;;;;;;5075487;28;20559;-77
2022/01/12 12:34:22;;;;;;;1999.90;999.90;;;3.80;99.90;;;;;;5092049;28;20174;-77
2022/01/12 12:37:03;;;;;;;1999.90;999.90;;;3.90;99.90;;;;;;5092226;28;20355;-77
2022/01/12 12:39:32;;;;;;;1999.90;999.90;;;4.00;99.90;;;;;;5092168;28;20170;-77
2022/01/12 12:41:59;;;;;;;1999.90;999.90;;;4.00;99.90;;;;;;5091981;28;20244;-77
2022/01/12 12:44:29;;;;;;;1999.90;999.90;;;4.20;99.90;;;;;;5091170;28;20171;-77
2022/01/12 12:47:25;;;;;;;1999.90;999.90;;;4.30;99.90;;;;;;5091640;28;20202;-77
2022/01/12 12:49:56;;;;;;;1999.90;999.90;;;4.30;99.90;;;;;;5070855;28;20217;-79
2022/01/12 12:52:29;;;;;;;1999.90;999.90;;;4.20;99.90;;;;;;5096063;28;20159;-75
2022/01/12 12:54:57;;;;;;;1999.90;999.90;;;4.30;99.90;;;;;;5095119;28;20404;-76
2022/01/12 12:57:24;;;;;;;1999.90;999.90;;;4.20;99.90;;;;;;5095257;28;20190;-76
2022/01/12 13:00:03;;;;;;;1999.90;999.90;;;4.20;99.90;;;;;;5077740;28;20249;-75
2022/01/12 13:02:40;;;;;;;1999.90;999.90;;;4.30;99.90;;;;;;5094349;28;20843;-76
2022/01/12 13:05:12;;;;;;;1999.90;999.90;;;4.30;99.90;;;;;;5079422;28;20173;-76
2022/01/12 13:07:43;;;;;;;1999.90;999.90;;;4.30;99.90;;;;;;5077185;28;20197;-77
2022/01/12 13:10:13;;;;;;;1999.90;999.90;;;4.30;99.90;;;;;;5091858;28;20166;-77
2022/01/12 13:12:40;;;;;;;1999.90;999.90;;;4.30;99.90;;;;;;5091642;28;20170;-77
2022/01/12 13:15:10;;;;;;;1999.90;999.90;;;4.20;99.90;;;;;;5072874;28;20761;-77
2022/01/12 13:17:39;;;;;;;1999.90;999.90;;;4.10;99.90;;;;;;5091434;28;20192;-77
2022/01/12 13:22:49;;;;;;;1999.90;999.90;;;4.10;99.90;;;;;;5091106;28;20178;-77
2022/01/12 13:25:16;;;;;;;1999.90;999.90;;;4.10;99.90;;;;;;5091272;28;20406;-77
2022/01/12 13:27:46;;;;;;;1999.90;999.90;;;4.10;99.90;;;;;;5091327;28;20526;-77
2022/01/12 13:30:26;;;;;;;1999.90;999.90;;;4.10;99.90;;;;;;5091303;28;20201;-77
2022/01/12 13:32:57;;;;;;;1999.90;999.90;;;4.20;99.90;;;;;;5091198;28;20576;-77
2022/01/12 13:35:32;;;;;;;1999.90;999.90;;;4.20;99.90;;;;;;5072660;28;20198;-77
2022/01/12 13:38:00;;;;;;;1999.90;999.90;;;4.20;99.90;;;;;;5072572;28;20971;-77
2022/01/12 13:40:37;;;;;;;1999.90;999.90;;;4.30;99.90;;;;;;5091231;28;20178;-76
2022/01/12 13:43:04;;;;;;;1999.90;999.90;;;4.30;99.90;;;;;;5091601;28;20647;-77
2022/01/12 13:45:41;;;;;;;1999.90;999.90;;;4.20;99.90;;;;;;5090331;28;20574;-77
2022/01/12 13:48:14;;;;;;;1999.90;999.90;;;4.10;99.90;;;;;;5091657;28;20237;-77
2022/01/12 13:50:46;;;;;;;1999.90;999.90;;;4.00;99.90;;;;;;5091224;28;20150;-76
2022/01/12 13:53:12;;;;;;;1999.90;999.90;;;4.00;99.90;;;;;;5091142;28;20216;-77
2022/01/12 13:55:50;;;;;;;1999.90;999.90;;;3.90;99.90;;;;;;5073003;28;20699;-77
2022/01/12 13:58:16;;;;;;;1999.90;999.90;;;4.00;99.90;;;;;;5090682;28;20166;-77
2022/01/12 14:00:42;;;;;;;1999.90;999.90;;;4.10;99.90;;;;;;5091034;28;20529;-77
2022/01/12 14:03:20;;;;;;;1999.90;999.90;;;4.10;99.90;;;;;;5090906;28;20171;-77
2022/01/12 14:05:46;;;;;;;1999.90;999.90;;;4.10;99.90;;;;;;5090565;28;20265;-77